MSC Cordoba — A8OF8 — position and weather

sailwx.info

Track history (hours):
 
Tides and Currents Weather Stations Pressure Air Temp Water Temp Dewpoint Dewpoint Depression Visibility Wind Speed Wind Dir Waves Ship Positions

MSC Cordoba

Last reported at 2017-Mar-27 08:33 UTC. Time now 2017-Mar-27 14:45 UTC.
Position N 36°53' E 013°01'.

Length 275 m; draft 12.3 m.

Type: Ship (hazmat cat A). MMSI: 636091473.

Date/timePositionNaut miles runAvg speedWind from/ knotsBaromVisibWave heightAir tempDewpointWater temp
2017-Mar-27 08:33N 36°53' E 013°01'2221.5
2017-Mar-27 07:31N 36°46' E 013°27'2121.1
2017-Mar-27 06:33N 36°40' E 013°51'2121.3
2017-Mar-27 05:33N 36°33' E 014°17'2121.2
2017-Mar-27 04:33N 36°27' E 014°42'2221.6
2017-Mar-27 03:31N 36°27' E 015°10'2121.8
2017-Mar-27 02:32N 36°27' E 015°37'  
2017-Mar-23 14:26N 40°46' E 029°32'0 0.0
2017-Mar-23 13:13N 40°46' E 029°32'0 0.0
2017-Mar-23 12:31N 40°46' E 029°32'0 0.0
2017-Mar-23 11:24N 40°46' E 029°32'0 0.0
2017-Mar-23 10:24N 40°46' E 029°32'0 0.0
2017-Mar-23 09:18N 40°46' E 029°32'0 0.0
2017-Mar-23 08:11N 40°46' E 029°32'176 4.6
2017-Mar-21 18:04N 39°52' E 025°52'3 5.5
2017-Mar-21 17:28N 39°50' E 025°49'2 2.0
2017-Mar-21 16:26N 39°49' E 025°47'51115.9
2017-Mar-20 08:15N 36°26' E 015°50'1622.9
2017-Mar-20 07:33N 36°27' E 015°30'2322.7
2017-Mar-20 06:33N 36°27' E 015°02'2222.3
2017-Mar-20 05:33N 36°29' E 014°34'2020.0
2017-Mar-20 04:33N 36°35' E 014°10'2020.1
2017-Mar-20 03:33N 36°41' E 013°47'2020.4
2017-Mar-20 02:33N 36°47' E 013°22'2019.8
2017-Mar-20 01:33N 36°53' E 012°59'2019.7
2017-Mar-20 00:33N 36°59' E 012°35'2019.8
2017-Mar-19 23:34N 37°05' E 012°12'36321.1
2017-Mar-19 06:20N 37°09' E 004°37'1721.8
2017-Mar-19 05:33N 37°06' E 004°16'2821.4
2017-Mar-19 04:14N 37°02' E 003°40'1421.3
2017-Mar-19 03:33N 37°00' E 003°23'2121.2
2017-Mar-19 02:33N 36°57' E 002°56'4821.7
2017-Mar-19 00:20N 36°50' E 001°57'1721.7
2017-Mar-18 23:33N 36°48' E 001°35'2121.5
2017-Mar-18 22:33N 36°45' E 001°09'4422.1
2017-Mar-18 20:33N 36°38' E 000°15'2321.8
2017-Mar-18 19:31N 36°35' W 000°13'2121.6
2017-Mar-18 18:33N 36°32' W 000°39'4321.3
2017-Mar-18 16:32N 36°25' W 001°31'16820.8
2017-Mar-18 08:30N 35°60' W 004°57'2021.5
2017-Mar-18 07:33N 35°58' W 005°22'2121.2
2017-Mar-18 06:33N 35°54' W 005°47'15420.7
2017-Mar-17 23:05N 36°27' W 008°54'3620.9
2017-Mar-17 21:21N 36°47' W 009°32'4321.7
2017-Mar-17 19:23N 37°29' W 009°46'2121.8
2017-Mar-17 18:25N 37°49' W 009°52'1921.6
2017-Mar-17 17:33N 38°07' W 009°57'2221.8
2017-Mar-17 16:33N 38°29' W 010°03'2121.4
2017-Mar-17 15:33N 38°50' W 010°06'2221.7
2017-Mar-17 14:33N 39°11' W 010°08'  
Track history (hours):
 
Tides and Currents Weather Stations Pressure Air Temp Water Temp Dewpoint Dewpoint Depression Visibility Wind Speed Wind Dir Waves Ship Positions

MSC Cordoba

Last reported at 2017-Mar-27 08:33 UTC. Time now 2017-Mar-27 14:45 UTC.
Position N 36°53' E 013°01'.

Length 275 m; draft 12.3 m.

Type: Ship (hazmat cat A). MMSI: 636091473.

Date/timePositionNaut miles runAvg speedWind from/ knotsBaromVisibWave heightAir tempDewpointWater temp
2017-Mar-27 08:33N 36°53' E 013°01'2221.5
2017-Mar-27 07:31N 36°46' E 013°27'2121.1
2017-Mar-27 06:33N 36°40' E 013°51'2121.3
2017-Mar-27 05:33N 36°33' E 014°17'2121.2
2017-Mar-27 04:33N 36°27' E 014°42'2221.6
2017-Mar-27 03:31N 36°27' E 015°10'2121.8
2017-Mar-27 02:32N 36°27' E 015°37'  
2017-Mar-23 14:26N 40°46' E 029°32'0 0.0
2017-Mar-23 13:13N 40°46' E 029°32'0 0.0
2017-Mar-23 12:31N 40°46' E 029°32'0 0.0
2017-Mar-23 11:24N 40°46' E 029°32'0 0.0
2017-Mar-23 10:24N 40°46' E 029°32'0 0.0
2017-Mar-23 09:18N 40°46' E 029°32'0 0.0
2017-Mar-23 08:11N 40°46' E 029°32'176 4.6
2017-Mar-21 18:04N 39°52' E 025°52'3 5.5
2017-Mar-21 17:28N 39°50' E 025°49'2 2.0
2017-Mar-21 16:26N 39°49' E 025°47'51115.9
2017-Mar-20 08:15N 36°26' E 015°50'1622.9
2017-Mar-20 07:33N 36°27' E 015°30'2322.7
2017-Mar-20 06:33N 36°27' E 015°02'2222.3
2017-Mar-20 05:33N 36°29' E 014°34'2020.0
2017-Mar-20 04:33N 36°35' E 014°10'2020.1
2017-Mar-20 03:33N 36°41' E 013°47'2020.4
2017-Mar-20 02:33N 36°47' E 013°22'2019.8
2017-Mar-20 01:33N 36°53' E 012°59'2019.7
2017-Mar-20 00:33N 36°59' E 012°35'2019.8
2017-Mar-19 23:34N 37°05' E 012°12'36321.1
2017-Mar-19 06:20N 37°09' E 004°37'1721.8
2017-Mar-19 05:33N 37°06' E 004°16'2821.4
2017-Mar-19 04:14N 37°02' E 003°40'1421.3
2017-Mar-19 03:33N 37°00' E 003°23'2121.2
2017-Mar-19 02:33N 36°57' E 002°56'4821.7
2017-Mar-19 00:20N 36°50' E 001°57'1721.7
2017-Mar-18 23:33N 36°48' E 001°35'2121.5
2017-Mar-18 22:33N 36°45' E 001°09'4422.1
2017-Mar-18 20:33N 36°38' E 000°15'2321.8
2017-Mar-18 19:31N 36°35' W 000°13'2121.6
2017-Mar-18 18:33N 36°32' W 000°39'4321.3
2017-Mar-18 16:32N 36°25' W 001°31'16820.8
2017-Mar-18 08:30N 35°60' W 004°57'2021.5
2017-Mar-18 07:33N 35°58' W 005°22'2121.2
2017-Mar-18 06:33N 35°54' W 005°47'15420.7
2017-Mar-17 23:05N 36°27' W 008°54'3620.9
2017-Mar-17 21:21N 36°47' W 009°32'4321.7
2017-Mar-17 19:23N 37°29' W 009°46'2121.8
2017-Mar-17 18:25N 37°49' W 009°52'1921.6
2017-Mar-17 17:33N 38°07' W 009°57'2221.8
2017-Mar-17 16:33N 38°29' W 010°03'2121.4
2017-Mar-17 15:33N 38°50' W 010°06'2221.7
2017-Mar-17 14:33N 39°11' W 010°08'  

Dump ship's entire track history